createdAt,value
2023-02-16T04:50:57.949Z,30.25
2023-02-16T04:53:24.728Z,30.57
2023-02-16T04:55:51.329Z,30.38
2023-02-16T04:58:17.894Z,30.24
2023-02-16T05:00:44.536Z,30.19
2023-02-16T05:03:11.154Z,30.06
2023-02-16T05:05:37.699Z,30.34
2023-02-16T05:08:04.307Z,30.36
2023-02-16T05:10:30.826Z,30.27
2023-02-16T05:13:15.834Z,30.40
2023-02-16T05:15:42.403Z,30.47
2023-02-16T05:18:08.944Z,30.14
2023-02-16T05:20:54.388Z,30.22
2023-02-16T05:23:20.967Z,30.26
2023-02-16T05:25:47.532Z,30.14
2023-02-16T05:28:14.093Z,30.11
2023-02-16T05:30:40.695Z,30.08
2023-02-16T05:33:07.256Z,30.01
2023-02-16T05:35:34.485Z,30.00
2023-02-16T05:38:01.105Z,30.27
2023-02-16T05:40:27.686Z,30.17
2023-02-16T05:42:54.861Z,30.10
2023-02-16T05:45:21.430Z,30.20
2023-02-16T05:47:48.044Z,29.91
2023-02-16T05:50:14.634Z,30.39
2023-02-16T05:52:41.218Z,30.43
2023-02-16T05:55:07.834Z,30.61
2023-02-16T05:57:35.690Z,30.39
2023-02-16T06:00:03.995Z,30.23
2023-02-16T06:02:31.162Z,30.38
2023-02-16T06:04:57.830Z,30.26
2023-02-16T06:07:24.358Z,30.23
2023-02-16T06:09:50.922Z,30.27
2023-02-16T06:12:17.519Z,30.16
2023-02-16T06:14:44.086Z,30.19
2023-02-16T06:17:10.724Z,30.16
2023-02-16T06:19:37.255Z,30.35
2023-02-16T06:22:03.834Z,30.18
2023-02-16T06:24:30.438Z,30.19
2023-02-16T06:26:57.048Z,30.42
2023-02-16T06:29:23.636Z,30.40
2023-02-16T06:31:50.337Z,30.40
2023-02-16T06:34:16.968Z,30.38
2023-02-16T06:36:43.679Z,30.33
2023-02-16T06:39:10.186Z,30.32
2023-02-16T06:41:40.138Z,30.46
2023-02-16T06:44:08.626Z,30.39
2023-02-16T06:46:35.201Z,30.41
2023-02-16T06:49:01.737Z,30.34
2023-02-16T06:51:28.307Z,30.36
2023-02-16T06:53:54.916Z,30.34
2023-02-16T06:56:21.706Z,30.37
2023-02-16T06:58:48.426Z,30.36
2023-02-16T07:01:15.083Z,30.33
2023-02-16T07:03:41.831Z,30.40
2023-02-16T07:06:08.386Z,30.42
2023-02-16T07:08:35.831Z,30.23
2023-02-16T07:11:02.606Z,30.22
2023-02-16T07:13:29.259Z,30.30
2023-02-16T07:15:55.830Z,30.26
2023-02-16T07:18:22.415Z,30.26
2023-02-16T07:20:48.986Z,30.58
2023-02-16T07:23:15.552Z,30.28
2023-02-16T07:25:42.126Z,30.46
2023-02-16T07:28:08.695Z,30.46
2023-02-16T07:30:36.008Z,30.40
2023-02-16T07:33:03.008Z,30.51
2023-02-16T07:35:29.631Z,30.56
2023-02-16T07:37:56.287Z,30.36
2023-02-16T07:40:22.944Z,30.29
2023-02-16T07:42:49.542Z,30.43
2023-02-16T07:45:16.070Z,30.10
2023-02-16T07:47:42.652Z,30.15
2023-02-16T07:50:09.626Z,30.20
2023-02-16T07:52:36.215Z,30.26
2023-02-16T07:55:03.444Z,30.57
2023-02-16T07:57:30.027Z,30.48
2023-02-16T07:59:56.681Z,30.23
2023-02-16T08:02:23.490Z,30.44
2023-02-16T08:04:52.560Z,30.37
2023-02-16T08:07:19.227Z,30.54
2023-02-16T08:09:46.937Z,30.49
2023-02-16T08:12:13.993Z,30.51
2023-02-16T08:14:40.638Z,30.34
2023-02-16T08:17:07.578Z,30.43
2023-02-16T08:19:34.374Z,30.37
2023-02-16T08:22:02.391Z,30.39
2023-02-16T08:24:29.219Z,30.35
2023-02-16T08:26:55.943Z,30.38
2023-02-16T08:29:23.478Z,30.14
2023-02-16T08:31:50.212Z,30.25
2023-02-16T08:34:18.096Z,30.35
2023-02-16T08:36:45.621Z,30.42
2023-02-16T08:39:14.862Z,30.49
2023-02-16T08:41:41.683Z,30.39
2023-02-16T08:44:08.718Z,30.34
2023-02-16T08:46:36.124Z,30.34
2023-02-16T08:49:03.163Z,30.07
2023-02-16T08:51:31.709Z,30.29
2023-02-16T08:53:58.854Z,30.31
2023-02-16T08:56:25.939Z,30.25
2023-02-16T08:58:52.596Z,30.24
2023-02-16T09:01:19.297Z,30.39
2023-02-16T09:03:46.207Z,30.31
2023-02-16T09:06:13.860Z,30.26
2023-02-16T09:08:40.795Z,30.35
2023-02-16T09:11:14.475Z,30.31
2023-02-16T09:13:41.197Z,30.33
2023-02-16T09:16:09.825Z,30.20
2023-02-16T09:18:36.909Z,30.19
2023-02-16T09:21:10.854Z,30.00
2023-02-16T09:23:38.557Z,30.22
2023-02-16T09:26:09.574Z,30.05
2023-02-16T09:28:40.087Z,30.01
2023-02-16T09:31:20.469Z,29.95
2023-02-16T09:33:47.166Z,30.00
2023-02-16T09:36:13.864Z,29.91
2023-02-16T09:38:40.588Z,29.90
2023-02-16T09:41:39.056Z,29.79
2023-02-16T09:44:21.695Z,30.04
2023-02-16T09:46:48.636Z,30.13
2023-02-16T09:49:29.075Z,30.41
2023-02-16T09:52:11.893Z,30.17
2023-02-16T09:54:49.179Z,30.26
2023-02-16T09:57:27.495Z,30.17
2023-02-16T10:00:00.593Z,30.42
2023-02-16T10:02:32.146Z,30.34
2023-02-16T10:05:08.530Z,30.25
2023-02-16T10:08:00.015Z,30.45
2023-02-16T10:10:39.825Z,30.20
2023-02-16T10:13:12.894Z,30.38
2023-02-16T10:15:40.165Z,30.29
2023-02-16T10:18:25.002Z,30.36
2023-02-16T10:20:53.285Z,30.19
2023-02-16T10:23:28.827Z,29.98
2023-02-16T10:26:13.787Z,29.76
2023-02-16T10:28:48.264Z,29.38
2023-02-16T10:31:32.587Z,28.59
2023-02-16T10:34:17.626Z,27.88
2023-02-16T10:37:22.171Z,27.45
2023-02-16T10:40:09.748Z,27.23
2023-02-16T10:42:59.629Z,26.40
2023-02-16T10:45:49.593Z,26.37
2023-02-16T10:48:16.410Z,26.50
2023-02-16T10:50:47.827Z,26.56
2023-02-16T10:53:17.744Z,27.02
2023-02-16T10:55:44.448Z,27.44
2023-02-16T10:58:18.595Z,27.49
2023-02-16T11:01:16.663Z,27.34
2023-02-16T11:03:49.604Z,27.52
2023-02-16T11:06:17.382Z,27.57
2023-02-16T11:08:51.208Z,27.55
2023-02-16T11:11:17.767Z,27.60
2023-02-16T11:13:47.596Z,27.74
2023-02-16T11:16:19.675Z,27.58
2023-02-16T11:18:49.606Z,27.84
2023-02-16T11:21:16.616Z,27.91
2023-02-16T11:23:43.923Z,27.91
2023-02-16T11:26:10.551Z,27.85
2023-02-16T11:28:47.629Z,28.04
2023-02-16T11:31:17.697Z,27.94
2023-02-16T11:34:05.816Z,27.55
2023-02-16T11:36:39.929Z,27.41
2023-02-16T11:39:27.633Z,27.73
2023-02-16T11:42:02.959Z,27.93
2023-02-16T11:44:41.292Z,27.57
2023-02-16T11:47:21.742Z,27.96
2023-02-16T11:49:49.511Z,28.00
2023-02-16T11:52:23.179Z,28.00
2023-02-16T11:54:53.490Z,28.00
2023-02-16T11:57:33.683Z,28.11
2023-02-16T12:00:01.219Z,28.08
2023-02-16T12:02:46.279Z,28.13
2023-02-16T12:05:32.169Z,28.21
2023-02-16T12:08:24.893Z,28.11
2023-02-16T12:11:06.485Z,28.03
2023-02-16T12:13:49.430Z,25.95
2023-02-16T12:16:54.228Z,25.73
2023-02-16T12:19:42.865Z,24.71
2023-02-16T12:22:19.648Z,23.91
2023-02-16T12:25:02.841Z,23.84
2023-02-16T12:27:48.095Z,24.27
2023-02-16T12:30:44.792Z,24.19
2023-02-16T12:33:33.128Z,24.04
2023-02-16T12:36:20.155Z,25.48
2023-02-16T12:39:40.549Z,25.68
2023-02-16T12:42:40.995Z,25.59
2023-02-16T12:45:22.025Z,25.59
2023-02-16T12:47:57.452Z,25.69
2023-02-16T12:50:31.298Z,25.73
2023-02-16T12:53:10.588Z,25.78
2023-02-16T12:55:39.992Z,25.89
2023-02-16T12:58:15.784Z,25.93
2023-02-16T13:00:49.446Z,25.99
2023-02-16T13:03:29.086Z,26.04
2023-02-16T13:06:18.550Z,26.13
2023-02-16T13:09:06.775Z,26.40
2023-02-16T13:11:38.482Z,26.10
2023-02-16T13:14:11.237Z,26.39
2023-02-16T13:16:42.567Z,26.23
2023-02-16T13:19:13.568Z,26.12
2023-02-16T13:22:02.100Z,26.29
2023-02-16T13:24:59.543Z,26.08
2023-02-16T13:27:53.603Z,26.20
2023-02-16T13:30:42.064Z,26.40
2023-02-16T13:33:27.598Z,26.44
2023-02-16T13:36:13.101Z,26.38
2023-02-16T13:39:09.520Z,26.50
2023-02-16T13:41:47.820Z,26.54
2023-02-16T13:44:19.038Z,26.60
2023-02-16T13:46:50.054Z,26.67
2023-02-16T13:49:50.364Z,26.75
2023-02-16T13:52:35.560Z,26.70
2023-02-16T13:55:03.975Z,26.79
2023-02-16T13:57:51.211Z,26.88
2023-02-16T14:00:36.622Z,26.89
2023-02-16T14:03:23.461Z,26.90
2023-02-16T14:05:51.732Z,26.98
2023-02-16T14:08:28.453Z,26.92
2023-02-16T14:10:57.900Z,26.82
2023-02-16T14:13:39.587Z,26.92
2023-02-16T14:16:09.033Z,27.01
2023-02-16T14:18:56.835Z,27.09
2023-02-16T14:21:39.230Z,27.32
2023-02-16T14:24:08.564Z,27.07
2023-02-16T14:27:01.021Z,27.21
2023-02-16T14:29:30.341Z,27.22
2023-02-16T14:32:20.722Z,27.15
2023-02-16T14:34:52.700Z,27.28
2023-02-16T14:37:36.725Z,27.26
2023-02-16T14:40:11.436Z,27.35
2023-02-16T14:42:38.046Z,27.25
2023-02-16T14:45:19.826Z,27.23
2023-02-16T14:47:58.442Z,27.44
2023-02-16T14:50:36.146Z,27.43
2023-02-16T14:53:08.595Z,27.53
2023-02-16T14:55:51.807Z,28.13
2023-02-16T14:58:37.013Z,27.62
2023-02-16T15:01:14.602Z,27.50
2023-02-16T15:03:50.335Z,27.46
2023-02-16T15:06:31.350Z,27.80
2023-02-16T15:08:59.783Z,27.90
2023-02-16T15:11:56.378Z,28.05
2023-02-16T15:14:22.942Z,28.01
2023-02-16T15:16:49.858Z,27.90
2023-02-16T15:19:17.861Z,28.00
2023-02-16T15:21:44.610Z,28.29
2023-02-16T15:24:21.937Z,28.12
2023-02-16T15:26:56.385Z,28.17
2023-02-16T15:29:26.939Z,28.49
2023-02-16T15:31:53.908Z,29.06
2023-02-16T15:34:28.648Z,29.59
2023-02-16T15:36:55.653Z,30.16
2023-02-16T15:39:45.262Z,29.08
2023-02-16T15:42:21.440Z,28.79
2023-02-16T15:44:48.162Z,28.91
2023-02-16T15:47:22.707Z,28.77
2023-02-16T15:49:49.560Z,28.87
2023-02-16T15:52:33.167Z,28.80
2023-02-16T15:55:00.650Z,28.51
2023-02-16T15:57:32.157Z,28.67
2023-02-16T16:00:08.500Z,28.75
2023-02-16T16:02:47.475Z,28.67
2023-02-16T16:05:28.313Z,28.75
2023-02-16T16:07:55.688Z,28.73
2023-02-16T16:10:28.424Z,28.78
2023-02-16T16:12:59.222Z,28.71
2023-02-16T16:15:26.950Z,28.51
2023-02-16T16:17:53.990Z,28.76
2023-02-16T16:20:36.329Z,28.82
2023-02-16T16:23:26.974Z,28.87
2023-02-16T16:25:54.917Z,28.69
2023-02-16T16:28:27.545Z,28.97
2023-02-16T16:31:14.404Z,28.85
2023-02-16T16:34:09.871Z,30.19
2023-02-16T16:36:55.265Z,29.44
2023-02-16T16:39:29.500Z,29.74
2023-02-16T16:42:15.030Z,29.42
2023-02-16T16:44:43.566Z,29.32
2023-02-16T16:47:19.171Z,29.26
2023-02-16T16:50:00.418Z,29.70
2023-02-16T16:52:38.222Z,29.34
2023-02-16T16:55:20.174Z,29.50
2023-02-16T16:57:47.514Z,29.88
2023-02-16T17:00:14.640Z,29.36
2023-02-16T17:02:41.330Z,28.12
2023-02-16T17:05:08.276Z,27.48
2023-02-16T17:07:34.918Z,27.44
2023-02-16T17:10:01.515Z,27.62
2023-02-16T17:12:28.160Z,27.99
2023-02-16T17:14:54.784Z,27.91
2023-02-16T17:17:21.443Z,27.96
2023-02-16T17:19:48.028Z,27.99
2023-02-16T17:22:16.092Z,27.97
2023-02-16T17:24:42.852Z,28.13
2023-02-16T17:27:09.605Z,28.03
2023-02-16T17:29:36.424Z,28.40
2023-02-16T17:32:04.012Z,28.38
2023-02-16T17:34:31.139Z,28.37
2023-02-16T17:36:58.703Z,28.52
2023-02-16T17:39:25.996Z,28.66
2023-02-16T17:41:52.687Z,28.83
2023-02-16T17:44:19.388Z,28.89
2023-02-16T17:46:46.052Z,29.04
2023-02-16T17:49:12.776Z,29.08
2023-02-16T17:51:39.470Z,29.29
2023-02-16T17:54:08.667Z,29.40
2023-02-16T17:56:35.728Z,30.32
2023-02-16T17:59:03.419Z,29.61
2023-02-16T18:01:30.092Z,29.86
2023-02-16T18:03:57.129Z,29.72
2023-02-16T18:06:29.121Z,29.81
2023-02-16T18:08:55.872Z,29.93
2023-02-16T18:11:22.439Z,29.76
2023-02-16T18:13:49.045Z,29.75
2023-02-16T18:16:18.784Z,29.87
2023-02-16T18:18:45.705Z,29.87
2023-02-16T18:21:12.395Z,29.89
2023-02-16T18:23:39.265Z,29.85
2023-02-16T18:26:06.817Z,30.01
2023-02-16T18:28:34.099Z,30.14
2023-02-16T18:31:00.892Z,29.99
2023-02-16T18:33:27.583Z,30.12
2023-02-16T18:35:55.718Z,30.34
2023-02-16T18:38:22.447Z,30.41
2023-02-16T18:40:49.339Z,30.38
2023-02-16T18:43:15.991Z,30.39
2023-02-16T18:45:42.702Z,30.79
2023-02-16T18:48:09.307Z,30.58
2023-02-16T18:50:35.945Z,30.54
2023-02-16T18:53:02.566Z,30.55
2023-02-16T18:55:32.863Z,30.48
2023-02-16T18:58:00.372Z,30.66
2023-02-16T19:00:27.135Z,30.47
2023-02-16T19:02:55.285Z,32.37
2023-02-16T19:05:22.019Z,31.90
2023-02-16T19:07:48.832Z,31.55
2023-02-16T19:10:15.647Z,31.54
2023-02-16T19:12:45.183Z,31.19
2023-02-16T19:15:11.856Z,31.12
2023-02-16T19:17:38.695Z,31.10
2023-02-16T19:20:14.461Z,30.90
2023-02-16T19:22:41.350Z,31.06
2023-02-16T19:25:08.211Z,31.05
2023-02-16T19:27:34.935Z,31.12
2023-02-16T19:30:01.680Z,30.76
2023-02-16T19:32:28.318Z,30.71
2023-02-16T19:34:54.973Z,30.99
2023-02-16T19:37:21.580Z,31.21
2023-02-16T19:39:48.201Z,31.14
2023-02-16T19:42:15.162Z,30.92
2023-02-16T19:44:41.786Z,30.85
2023-02-16T19:47:08.390Z,30.84
2023-02-16T19:49:36.497Z,30.93
2023-02-16T19:52:04.180Z,30.82
2023-02-16T19:54:33.074Z,31.07
2023-02-16T19:56:59.672Z,30.88
2023-02-16T19:59:26.388Z,30.97
2023-02-16T20:01:53.150Z,31.07
2023-02-16T20:04:19.848Z,30.98
2023-02-16T20:06:47.109Z,30.78
2023-02-16T20:09:16.440Z,31.24
2023-02-16T20:11:43.239Z,31.23
2023-02-16T20:14:10.877Z,31.07
2023-02-16T20:16:37.701Z,31.09
2023-02-16T20:19:07.154Z,31.31
2023-02-16T20:21:36.789Z,31.07
2023-02-16T20:24:06.501Z,31.19
2023-02-16T20:26:35.108Z,31.20
2023-02-16T20:29:02.305Z,31.04
2023-02-16T20:31:32.550Z,31.19
2023-02-16T20:33:59.406Z,31.01
2023-02-16T20:36:26.249Z,31.20
2023-02-16T20:38:52.924Z,31.17
2023-02-16T20:41:22.696Z,31.29
2023-02-16T20:43:50.146Z,31.04
2023-02-16T20:46:17.196Z,31.19
2023-02-16T20:48:44.023Z,31.15
2023-02-16T20:51:10.957Z,31.23
2023-02-16T20:53:37.545Z,31.19
2023-02-16T20:56:24.066Z,31.38
2023-02-16T20:58:51.697Z,31.21
2023-02-16T21:01:30.308Z,31.05
2023-02-16T21:03:58.363Z,31.25
2023-02-16T21:06:26.422Z,31.26
2023-02-16T21:08:53.070Z,31.29
2023-02-16T21:11:19.740Z,31.37
2023-02-16T21:13:46.468Z,31.20
2023-02-16T21:16:14.182Z,31.45
2023-02-16T21:18:41.221Z,31.39
2023-02-16T21:21:08.221Z,31.30
2023-02-16T21:23:34.975Z,31.22
2023-02-16T21:26:03.392Z,31.24
2023-02-16T21:28:30.394Z,31.18
2023-02-16T21:30:58.342Z,31.24
2023-02-16T21:33:24.898Z,31.24
2023-02-16T21:35:51.492Z,31.16
2023-02-16T21:38:18.161Z,31.12
2023-02-16T21:41:03.415Z,31.19
2023-02-16T21:43:30.032Z,31.12
2023-02-16T21:46:02.874Z,30.96
2023-02-16T21:48:47.865Z,30.96
2023-02-16T21:51:19.752Z,31.24
2023-02-16T21:53:46.373Z,31.03
2023-02-16T21:56:27.103Z,31.02
2023-02-16T21:58:53.703Z,31.31
2023-02-16T22:01:24.759Z,30.99
2023-02-16T22:03:56.271Z,31.01
2023-02-16T22:06:24.810Z,31.53
2023-02-16T22:08:51.657Z,31.06
2023-02-16T22:11:18.396Z,31.20
2023-02-16T22:13:45.184Z,30.80
2023-02-16T22:16:17.598Z,31.11
2023-02-16T22:18:44.421Z,31.13
2023-02-16T22:21:11.233Z,31.13
2023-02-16T22:23:38.179Z,31.38
2023-02-16T22:26:06.276Z,31.01
2023-02-16T22:28:33.579Z,31.07
